createdAt,value
2022-09-01T00:01:39.429Z,5.22
2022-09-01T00:04:06.459Z,6.13
2022-09-01T00:06:33.778Z,3.65
2022-09-01T00:09:05.645Z,3.03
2022-09-01T00:11:33.258Z,5.85
2022-09-01T00:14:01.638Z,3.38
2022-09-01T00:16:29.332Z,6.90
2022-09-01T00:18:57.097Z,4.43
2022-09-01T00:21:33.675Z,3.83
2022-09-01T00:24:00.920Z,4.63
2022-09-01T00:26:27.835Z,3.15
2022-09-01T00:28:54.731Z,3.25
2022-09-01T00:31:21.859Z,8.80
2022-09-01T00:33:48.973Z,5.40
2022-09-01T00:36:16.924Z,5.90
2022-09-01T00:38:43.919Z,3.80
2022-09-01T00:41:10.876Z,3.75
2022-09-01T00:43:40.744Z,3.80
2022-09-01T00:46:10.055Z,6.30
2022-09-01T00:48:37.614Z,4.43
2022-09-01T00:51:05.450Z,4.05
2022-09-01T00:53:32.809Z,5.30
2022-09-01T00:55:59.622Z,12.18
2022-09-01T00:58:26.519Z,4.13
2022-09-01T01:00:53.873Z,5.72
2022-09-01T01:03:20.768Z,3.50
2022-09-01T01:05:54.298Z,3.47
2022-09-01T01:08:34.079Z,6.10
2022-09-01T01:11:06.617Z,3.00
2022-09-01T01:13:36.224Z,4.20
2022-09-01T01:16:03.986Z,3.78
2022-09-01T01:18:30.902Z,2.97
2022-09-01T01:21:25.846Z,8.98
2022-09-01T01:23:56.630Z,4.90
2022-09-01T01:26:23.636Z,7.28
2022-09-01T01:28:52.057Z,3.80
2022-09-01T01:31:24.771Z,4.05
2022-09-01T01:33:53.407Z,3.75
2022-09-01T01:36:31.160Z,3.10
2022-09-01T01:39:01.961Z,2.95
2022-09-01T01:41:34.075Z,4.82
2022-09-01T01:44:04.359Z,4.82
2022-09-01T01:46:32.750Z,4.15
2022-09-01T01:49:02.202Z,3.75
2022-09-01T01:51:31.983Z,2.50
2022-09-01T01:54:01.843Z,3.38
2022-09-01T01:56:28.657Z,7.45
2022-09-01T01:58:56.479Z,3.53
2022-09-01T02:01:25.456Z,2.65
2022-09-01T02:03:54.860Z,1.60
2022-09-01T02:06:25.154Z,2.22
2022-09-01T02:08:53.026Z,2.85
2022-09-01T02:11:19.877Z,6.38
2022-09-01T02:13:46.890Z,6.25
2022-09-01T02:16:14.342Z,4.68
2022-09-01T02:18:48.226Z,6.53
2022-09-01T02:21:19.667Z,2.63
2022-09-01T02:24:01.141Z,6.93
2022-09-01T02:26:31.319Z,4.72
2022-09-01T02:29:05.918Z,4.07
2022-09-01T02:31:35.464Z,6.13
2022-09-01T02:34:03.856Z,6.65
2022-09-01T02:36:32.964Z,3.83
2022-09-01T02:38:59.877Z,4.40
2022-09-01T02:41:30.157Z,4.25
2022-09-01T02:43:57.311Z,3.35
2022-09-01T02:46:24.663Z,4.93
2022-09-01T02:48:52.014Z,5.22
2022-09-01T02:51:20.274Z,3.67
2022-09-01T02:53:49.802Z,3.53
2022-09-01T02:56:18.242Z,5.10
2022-09-01T02:58:48.222Z,3.30
2022-09-01T03:01:24.867Z,4.85
2022-09-01T03:03:55.402Z,4.78
2022-09-01T03:06:24.487Z,6.13
2022-09-01T03:08:52.820Z,6.93
2022-09-01T03:11:21.279Z,3.65
2022-09-01T03:13:48.177Z,2.85
2022-09-01T03:16:16.261Z,3.65
2022-09-01T03:18:43.195Z,4.82
2022-09-01T03:21:10.155Z,3.85
2022-09-01T03:23:38.089Z,6.43
2022-09-01T03:26:05.066Z,5.22
2022-09-01T03:28:33.005Z,6.25
2022-09-01T03:31:01.834Z,2.70
2022-09-01T03:33:28.685Z,7.03
2022-09-01T03:35:56.042Z,5.15
2022-09-01T03:38:24.382Z,4.63
2022-09-01T03:40:52.846Z,6.38
2022-09-01T03:43:23.446Z,4.72
2022-09-01T03:45:50.382Z,3.25
2022-09-01T03:48:17.333Z,3.08
2022-09-01T03:50:47.791Z,2.83
2022-09-01T03:53:16.334Z,5.22
2022-09-01T03:55:45.229Z,2.85
2022-09-01T03:58:13.682Z,4.55
2022-09-01T04:00:44.936Z,6.22
2022-09-01T04:03:19.720Z,8.23
2022-09-01T04:05:55.510Z,5.15
2022-09-01T04:08:32.416Z,7.25
2022-09-01T04:11:05.292Z,4.00
2022-09-01T04:13:35.577Z,6.95
2022-09-01T04:16:02.901Z,4.10
2022-09-01T04:18:30.645Z,3.45
2022-09-01T04:20:59.518Z,5.57
2022-09-01T04:23:33.969Z,5.95
2022-09-01T04:26:08.977Z,3.92
2022-09-01T04:28:38.818Z,4.65
2022-09-01T04:31:10.198Z,2.85
2022-09-01T04:33:39.911Z,4.63
2022-09-01T04:36:14.034Z,6.43
2022-09-01T04:38:41.840Z,7.50
2022-09-01T04:41:09.506Z,4.72
2022-09-01T04:43:36.413Z,4.72
2022-09-01T04:46:03.416Z,5.00
2022-09-01T04:48:31.806Z,7.40
2022-09-01T04:50:58.922Z,7.95
2022-09-01T04:53:28.527Z,4.90
2022-09-01T04:55:55.836Z,6.45
2022-09-01T04:58:22.929Z,10.65
2022-09-01T05:00:52.396Z,5.72
2022-09-01T05:03:24.651Z,7.22
2022-09-01T05:05:54.075Z,7.07
2022-09-01T05:08:24.204Z,4.20
2022-09-01T05:10:55.727Z,6.15
2022-09-01T05:13:27.365Z,5.88
2022-09-01T05:16:06.537Z,2.97
2022-09-01T05:18:34.097Z,4.35
2022-09-01T05:21:09.885Z,5.88
2022-09-01T05:23:40.507Z,4.95
2022-09-01T05:26:16.987Z,3.60
2022-09-01T05:28:53.847Z,4.43
2022-09-01T05:31:21.368Z,6.70
2022-09-01T05:33:50.947Z,5.95
2022-09-01T05:36:20.190Z,7.80
2022-09-01T05:38:48.058Z,7.07
2022-09-01T05:41:15.719Z,5.78
2022-09-01T05:43:46.454Z,8.60
2022-09-01T05:46:16.999Z,7.05
2022-09-01T05:48:45.029Z,5.18
2022-09-01T05:51:40.255Z,5.78
2022-09-01T05:54:02.073Z,6.30
2022-09-01T05:56:30.005Z,5.35
2022-09-01T06:01:50.194Z,5.53
2022-09-01T06:04:17.624Z,7.82
2022-09-01T06:07:07.127Z,9.02
2022-09-01T06:09:36.815Z,6.63
2022-09-01T06:12:03.832Z,5.15
2022-09-01T06:14:30.627Z,5.93
2022-09-01T06:16:58.204Z,4.05
2022-09-01T06:19:25.013Z,3.92
2022-09-01T06:21:52.167Z,5.53
2022-09-01T06:24:19.062Z,5.82
2022-09-01T06:26:46.999Z,5.50
2022-09-01T06:29:15.609Z,5.70
2022-09-01T06:31:43.452Z,5.32
2022-09-01T06:34:13.941Z,7.75
2022-09-01T06:36:40.893Z,8.32
2022-09-01T06:39:08.525Z,4.72
2022-09-01T06:41:39.538Z,7.65
2022-09-01T06:44:08.930Z,7.22
2022-09-01T06:46:39.323Z,5.15
2022-09-01T06:49:06.170Z,6.03
2022-09-01T06:51:34.000Z,6.07
2022-09-01T06:54:02.091Z,5.75
2022-09-01T06:56:32.015Z,5.63
2022-09-01T06:58:59.302Z,6.65
2022-09-01T07:01:27.972Z,6.65
2022-09-01T07:03:57.169Z,8.48
2022-09-01T07:17:42.299Z,4.82
2022-09-01T07:20:26.786Z,6.90
2022-09-01T07:23:09.986Z,5.90
2022-09-01T07:28:39.454Z,12.48
2022-09-01T07:39:51.754Z,6.63
2022-09-01T07:42:59.309Z,9.70
2022-09-01T07:45:26.671Z,8.48
2022-09-01T07:47:54.758Z,7.20
2022-09-01T07:50:39.820Z,9.32
2022-09-01T07:53:17.898Z,11.98
2022-09-01T07:55:50.925Z,8.77
2022-09-01T07:58:19.367Z,11.25
2022-09-01T08:00:47.493Z,8.45
2022-09-01T08:03:14.670Z,11.70
2022-09-01T08:05:41.613Z,10.25
2022-09-01T08:08:27.951Z,9.00
2022-09-01T08:11:04.390Z,9.18
2022-09-01T08:13:37.242Z,11.70
2022-09-01T08:16:15.964Z,11.93
2022-09-01T08:18:51.777Z,11.07
2022-09-01T08:21:19.771Z,8.35
2022-09-01T08:23:47.934Z,12.88
2022-09-01T08:26:20.387Z,9.50
2022-09-01T08:28:54.935Z,7.40
2022-09-01T08:31:23.304Z,9.60
2022-09-01T08:33:50.274Z,9.02
2022-09-01T08:36:21.578Z,9.23
2022-09-01T08:38:51.263Z,9.13
2022-09-01T08:41:38.251Z,11.93
2022-09-01T08:44:33.326Z,13.60
2022-09-01T08:47:03.698Z,11.32
2022-09-01T08:49:31.042Z,9.52
2022-09-01T08:52:21.917Z,9.32
2022-09-01T08:54:50.738Z,8.93
2022-09-01T08:57:41.295Z,16.30
2022-09-01T09:00:11.528Z,12.38
2022-09-01T09:02:41.128Z,12.15
2022-09-01T09:05:18.291Z,13.93
2022-09-01T09:07:45.114Z,9.02
2022-09-01T09:10:27.027Z,13.90
2022-09-01T09:13:09.071Z,9.40
2022-09-01T09:16:07.321Z,14.38
2022-09-01T09:18:39.086Z,10.13
2022-09-01T09:21:30.419Z,8.40
2022-09-01T09:24:22.417Z,10.80
2022-09-01T09:26:53.434Z,14.20
2022-09-01T09:29:23.253Z,10.80
2022-09-01T09:32:50.496Z,15.65
2022-09-01T09:34:59.566Z,12.07
2022-09-01T09:37:30.642Z,14.30
2022-09-01T09:40:25.330Z,12.65
2022-09-01T09:42:55.403Z,8.30
2022-09-01T09:45:26.157Z,11.63
2022-09-01T09:47:53.895Z,13.15
2022-09-01T09:50:29.577Z,13.57
2022-09-01T09:53:16.803Z,11.15
2022-09-01T09:56:24.342Z,16.75
2022-09-01T09:58:51.371Z,10.75
2022-09-01T10:01:24.597Z,9.73
2022-09-01T10:03:54.117Z,12.15
2022-09-01T10:06:36.211Z,11.20
2022-09-01T10:09:09.390Z,12.02
2022-09-01T10:11:41.588Z,12.65
2022-09-01T10:14:51.651Z,8.68
2022-09-01T10:17:26.886Z,11.32
2022-09-01T10:20:05.740Z,12.57
2022-09-01T10:22:33.667Z,10.35
2022-09-01T10:25:00.874Z,8.85
2022-09-01T10:27:31.998Z,16.27
2022-09-01T10:30:19.982Z,9.50
2022-09-01T10:32:56.939Z,12.38
2022-09-01T10:35:38.754Z,18.35
2022-09-01T10:38:18.176Z,17.25
2022-09-01T10:40:51.009Z,12.23
2022-09-01T10:43:37.964Z,13.55
2022-09-01T10:46:15.645Z,15.05
2022-09-01T10:48:51.863Z,12.70
2022-09-01T10:51:28.162Z,13.48
2022-09-01T10:54:02.256Z,12.05
2022-09-01T10:56:44.324Z,15.18
2022-09-01T10:59:41.890Z,11.27
2022-09-01T11:02:29.503Z,10.02
2022-09-01T11:04:59.419Z,11.93
2022-09-01T11:07:58.162Z,15.77
2022-09-01T11:10:37.174Z,12.68
2022-09-01T11:13:37.750Z,10.95
2022-09-01T11:16:47.030Z,9.98
2022-09-01T11:19:32.186Z,6.43
2022-09-01T11:22:09.441Z,9.82
2022-09-01T11:24:44.257Z,9.15
2022-09-01T11:27:49.420Z,8.55
2022-09-01T11:30:37.946Z,12.80
2022-09-01T11:33:17.039Z,10.88
2022-09-01T11:35:45.792Z,10.70
2022-09-01T11:38:14.196Z,11.20
2022-09-01T11:40:41.364Z,15.65
2022-09-01T11:43:14.463Z,9.88
2022-09-01T11:46:15.967Z,10.38
2022-09-01T11:48:47.341Z,10.23
2022-09-01T11:51:18.927Z,10.43
2022-09-01T11:53:45.837Z,10.30
2022-09-01T11:56:23.341Z,12.50
2022-09-01T11:58:50.150Z,7.25
2022-09-01T12:01:37.521Z,9.25
2022-09-01T12:04:27.583Z,6.95
2022-09-01T12:07:02.433Z,10.50
2022-09-01T12:09:37.751Z,8.10
2022-09-01T12:12:06.871Z,8.48
2022-09-01T12:14:55.124Z,6.05
2022-09-01T12:17:21.199Z,10.85
2022-09-01T12:19:48.038Z,12.10
2022-09-01T12:22:18.460Z,12.02
2022-09-01T12:24:47.280Z,9.18
2022-09-01T12:27:14.603Z,6.47
2022-09-01T12:29:41.626Z,9.32
2022-09-01T12:32:08.957Z,7.50
2022-09-01T12:34:44.311Z,9.50
2022-09-01T12:37:12.411Z,8.60
2022-09-01T12:39:44.138Z,9.32
2022-09-01T12:42:21.204Z,11.13
2022-09-01T12:44:53.839Z,9.15
2022-09-01T12:47:36.261Z,9.23
2022-09-01T12:50:08.853Z,9.93
2022-09-01T12:52:36.438Z,9.20
2022-09-01T12:55:04.071Z,7.95
2022-09-01T12:57:31.938Z,13.23
2022-09-01T13:00:18.167Z,8.45
2022-09-01T13:02:46.226Z,7.65
2022-09-01T13:05:37.504Z,10.23
2022-09-01T13:08:09.792Z,6.80
2022-09-01T13:10:43.248Z,5.53
2022-09-01T13:13:11.054Z,8.77
2022-09-01T13:15:50.897Z,9.30
2022-09-01T13:18:18.299Z,8.40
2022-09-01T13:20:46.122Z,6.50
2022-09-01T13:23:13.139Z,10.00
2022-09-01T13:25:40.489Z,9.25
2022-09-01T13:28:07.882Z,7.88
2022-09-01T13:30:35.190Z,6.85
2022-09-01T13:35:49.640Z,9.93
2022-09-01T13:38:18.062Z,11.20
2022-09-01T13:40:47.253Z,6.60
2022-09-01T13:43:17.506Z,9.32
2022-09-01T13:45:45.154Z,5.43
2022-09-01T13:48:16.259Z,8.63
2022-09-01T13:53:36.343Z,8.27
2022-09-01T13:56:03.465Z,9.52
2022-09-01T13:58:30.349Z,7.28
2022-09-01T14:01:00.194Z,7.65
2022-09-01T14:03:27.317Z,8.98
2022-09-01T14:05:54.663Z,8.80
2022-09-01T14:08:22.661Z,5.13
2022-09-01T14:10:51.068Z,5.25
2022-09-01T14:13:18.880Z,7.15
2022-09-01T14:15:47.052Z,6.95
2022-09-01T14:18:15.101Z,9.20
2022-09-01T14:20:44.041Z,7.28
2022-09-01T14:23:10.938Z,5.63
2022-09-01T14:25:41.714Z,8.30
2022-09-01T14:28:08.594Z,7.55
2022-09-01T14:30:35.467Z,5.82
2022-09-01T14:33:02.772Z,6.85
2022-09-01T14:35:33.353Z,7.15
2022-09-01T14:38:00.863Z,8.95
2022-09-01T14:40:29.386Z,10.02
2022-09-01T14:42:56.287Z,6.57
2022-09-01T14:45:25.468Z,7.55
2022-09-01T14:47:54.201Z,7.50
2022-09-01T14:50:23.006Z,9.93
2022-09-01T14:52:52.850Z,13.57
2022-09-01T14:55:20.302Z,11.02
2022-09-01T14:57:47.267Z,7.25
2022-09-01T15:00:14.346Z,8.45
2022-09-01T15:02:41.854Z,6.82
2022-09-01T15:05:09.260Z,10.52
2022-09-01T15:07:36.414Z,9.55
2022-09-01T15:10:04.568Z,8.82
2022-09-01T15:12:31.702Z,8.70
2022-09-01T15:14:59.522Z,8.10
2022-09-01T15:17:27.254Z,9.63
2022-09-01T15:19:54.219Z,12.02
2022-09-01T15:22:21.120Z,11.95
2022-09-01T15:24:48.041Z,6.47
2022-09-01T15:27:14.914Z,11.10
2022-09-01T15:29:51.306Z,8.73
2022-09-01T15:32:27.551Z,8.27
2022-09-01T15:34:55.779Z,14.75
2022-09-01T15:37:22.615Z,8.32
2022-09-01T15:39:49.455Z,6.15
2022-09-01T15:42:17.421Z,11.20
2022-09-01T15:44:44.538Z,7.70
2022-09-01T15:47:11.370Z,8.73
2022-09-01T15:49:38.253Z,6.97
2022-09-01T15:52:05.375Z,6.30
2022-09-01T15:54:32.314Z,6.32
2022-09-01T15:56:59.179Z,5.85
2022-09-01T15:59:26.420Z,10.38
2022-09-01T16:01:56.402Z,8.13
2022-09-01T16:04:27.558Z,9.90
2022-09-01T16:06:56.620Z,6.68
2022-09-01T16:09:25.419Z,8.30
2022-09-01T16:11:53.087Z,4.63
2022-09-01T16:14:23.582Z,8.07
2022-09-01T16:17:08.665Z,5.75
2022-09-01T16:19:47.826Z,6.60
2022-09-01T16:22:27.798Z,6.50
2022-09-01T16:24:57.885Z,7.40
2022-09-01T16:27:32.129Z,9.23
2022-09-01T16:30:04.638Z,4.72
2022-09-01T16:32:33.437Z,5.30
2022-09-01T16:35:04.009Z,6.07
2022-09-01T16:37:42.934Z,4.75
2022-09-01T16:40:14.608Z,6.43
2022-09-01T16:42:57.807Z,5.13
2022-09-01T16:45:51.188Z,6.53
2022-09-01T16:48:42.349Z,5.53
2022-09-01T16:51:18.434Z,9.35
2022-09-01T16:53:59.121Z,5.38
2022-09-01T16:56:34.355Z,5.53
2022-09-01T17:02:01.688Z,6.82
2022-09-01T17:04:36.197Z,4.75
2022-09-01T17:07:05.951Z,8.00
2022-09-01T17:09:43.531Z,2.80
2022-09-01T17:12:28.549Z,5.68
2022-09-01T17:15:14.964Z,9.23
2022-09-01T17:18:01.695Z,5.65
2022-09-01T17:20:35.270Z,7.05
2022-09-01T17:23:08.757Z,8.65
2022-09-01T17:25:46.005Z,6.15
2022-09-01T17:28:16.778Z,6.05
2022-09-01T17:31:05.454Z,5.68
2022-09-01T17:33:52.618Z,8.52
2022-09-01T17:36:34.800Z,6.38
2022-09-01T17:39:29.024Z,5.53
2022-09-01T17:42:25.041Z,4.53
2022-09-01T17:44:56.284Z,7.07
2022-09-01T17:47:31.042Z,13.43
2022-09-01T17:50:30.210Z,7.95
2022-09-01T17:53:02.951Z,4.45
2022-09-01T17:55:55.595Z,8.05
2022-09-01T17:58:25.582Z,4.60
2022-09-01T18:01:09.863Z,4.65
2022-09-01T18:03:46.214Z,5.20
2022-09-01T18:06:33.858Z,5.30
2022-09-01T18:09:00.803Z,5.28
2022-09-01T18:11:44.414Z,6.00
2022-09-01T18:14:15.979Z,3.67
2022-09-01T18:16:56.353Z,6.68
2022-09-01T18:19:24.919Z,7.28
2022-09-01T18:22:00.632Z,3.97
2022-09-01T18:24:42.270Z,3.72
2022-09-01T18:27:09.235Z,4.10
2022-09-01T18:29:36.320Z,7.78
2022-09-01T18:32:05.966Z,7.00
2022-09-01T18:34:51.235Z,7.97
2022-09-01T18:37:37.410Z,7.07
2022-09-01T18:40:11.907Z,7.68
2022-09-01T18:42:44.566Z,8.93
2022-09-01T18:45:32.578Z,13.77
2022-09-01T18:48:37.736Z,5.40
2022-09-01T18:51:12.098Z,7.63
2022-09-01T18:53:59.802Z,7.65
2022-09-01T18:56:37.459Z,4.45
2022-09-01T18:59:11.607Z,6.93
2022-09-01T19:01:42.974Z,8.63
2022-09-01T19:04:41.015Z,7.22
2022-09-01T19:07:16.773Z,7.97
2022-09-01T19:09:58.847Z,7.57
2022-09-01T19:12:54.061Z,4.90
2022-09-01T19:15:50.098Z,5.38
2022-09-01T19:18:43.295Z,9.07
2022-09-01T19:21:25.749Z,8.70
2022-09-01T19:24:02.881Z,6.95
2022-09-01T19:26:33.253Z,5.32
2022-09-01T19:29:27.762Z,4.97
2022-09-01T19:31:59.791Z,4.68
2022-09-01T19:34:31.997Z,6.45
2022-09-01T19:37:01.158Z,5.78
2022-09-01T19:39:33.897Z,6.38
2022-09-01T19:42:26.911Z,4.80
2022-09-01T19:45:10.931Z,5.05
2022-09-01T19:47:59.425Z,4.90
2022-09-01T19:50:40.564Z,4.18
2022-09-01T19:53:25.408Z,5.30
2022-09-01T19:56:07.373Z,7.40
2022-09-01T19:58:51.709Z,4.28
2022-09-01T20:01:36.911Z,2.92
2022-09-01T20:04:15.066Z,3.58
2022-09-01T20:06:43.193Z,4.10
2022-09-01T20:09:15.417Z,4.82
2022-09-01T20:11:47.784Z,3.90
2022-09-01T20:14:55.807Z,5.68
2022-09-01T20:17:44.247Z,7.88
2022-09-01T20:20:19.375Z,4.75
2022-09-01T20:23:03.767Z,4.82
2022-09-01T20:25:43.141Z,3.28
2022-09-01T20:28:29.058Z,5.38
2022-09-01T20:31:07.612Z,4.07
2022-09-01T20:33:47.009Z,4.82
2022-09-01T20:36:46.826Z,3.25
2022-09-01T20:39:50.194Z,4.97
2022-09-01T20:42:31.372Z,3.90
2022-09-01T20:45:11.206Z,3.80
2022-09-01T20:47:38.061Z,6.45
2022-09-01T20:50:09.649Z,4.72
2022-09-01T20:52:39.310Z,5.75
2022-09-01T20:55:18.908Z,9.88
2022-09-01T20:58:12.294Z,7.40
2022-09-01T21:01:15.379Z,8.40
2022-09-01T21:04:08.294Z,6.07
2022-09-01T21:07:01.343Z,5.45
2022-09-01T21:09:35.557Z,4.15
2022-09-01T21:12:24.208Z,6.35
2022-09-01T21:15:18.420Z,4.55
2022-09-01T21:18:03.229Z,7.88
2022-09-01T21:20:35.972Z,3.42
2022-09-01T21:23:03.789Z,1.85
2022-09-01T21:25:33.810Z,2.88
2022-09-01T21:28:02.219Z,3.10
2022-09-01T21:30:34.139Z,4.70
2022-09-01T21:33:01.584Z,7.03
2022-09-01T21:35:28.596Z,4.25
2022-09-01T21:37:55.503Z,7.18
2022-09-01T21:40:23.538Z,2.85
2022-09-01T21:42:57.093Z,2.90
2022-09-01T21:45:24.276Z,4.07
2022-09-01T21:47:51.274Z,4.72
2022-09-01T21:50:20.806Z,5.38
2022-09-01T21:52:47.699Z,7.80
2022-09-01T21:55:15.979Z,8.18
2022-09-01T21:57:45.999Z,2.58
2022-09-01T22:00:16.098Z,2.70
2022-09-01T22:02:43.484Z,5.53
2022-09-01T22:05:10.818Z,4.03
2022-09-01T22:07:40.365Z,3.78
2022-09-01T22:10:08.439Z,4.05
2022-09-01T22:12:39.358Z,5.18
2022-09-01T22:15:07.653Z,4.57
2022-09-01T22:17:34.520Z,3.47
2022-09-01T22:20:05.382Z,5.53
2022-09-01T22:22:33.118Z,4.20
2022-09-01T22:25:00.497Z,3.92
2022-09-01T22:27:27.329Z,5.35
2022-09-01T22:29:54.174Z,7.20
2022-09-01T22:32:23.159Z,6.50
2022-09-01T22:34:49.958Z,4.55
2022-09-01T22:37:16.830Z,2.67
2022-09-01T22:39:43.995Z,3.67
2022-09-01T22:42:10.820Z,2.72
2022-09-01T22:44:37.668Z,8.00
2022-09-01T22:47:04.774Z,4.85
2022-09-01T22:49:31.641Z,5.07
2022-09-01T22:51:58.506Z,8.60
2022-09-01T22:54:25.344Z,8.30
2022-09-01T22:56:52.757Z,4.75
2022-09-01T22:59:23.227Z,5.25
2022-09-01T23:01:51.397Z,8.00
2022-09-01T23:04:18.397Z,3.03
2022-09-01T23:06:47.776Z,4.53
2022-09-01T23:09:15.357Z,6.55
2022-09-01T23:11:42.412Z,3.67
2022-09-01T23:14:09.435Z,5.43
2022-09-01T23:16:36.825Z,7.97
2022-09-01T23:19:03.991Z,7.82
2022-09-01T23:21:32.900Z,4.90
2022-09-01T23:23:59.830Z,5.90
2022-09-01T23:26:27.805Z,4.05
2022-09-01T23:28:54.667Z,5.32
2022-09-01T23:31:24.881Z,3.80
2022-09-01T23:33:51.798Z,6.25
2022-09-01T23:36:21.819Z,3.53
2022-09-01T23:38:48.840Z,3.22
2022-09-01T23:41:24.307Z,8.43
2022-09-01T23:43:54.003Z,4.57
2022-09-01T23:46:25.913Z,3.60
2022-09-01T23:48:52.932Z,2.25
2022-09-01T23:51:19.927Z,4.15
2022-09-01T23:53:47.195Z,6.45
2022-09-01T23:56:15.954Z,3.75
2022-09-01T23:58:42.865Z,4.10
